sensor_id;sensor_type;location;lat;lon;timestamp;pressure;altitude;pressure_sealevel;temperature;humidity
68948;BME280;55996;49.546;7.400;2022-08-21T00:01:44;98796.56;;;16.40;68.34
68948;BME280;55996;49.546;7.400;2022-08-21T00:04:10;98795.88;;;16.37;68.50
68948;BME280;55996;49.546;7.400;2022-08-21T00:06:36;98798.03;;;16.30;68.02
68948;BME280;55996;49.546;7.400;2022-08-21T00:09:05;98781.84;;;16.20;68.29
68948;BME280;55996;49.546;7.400;2022-08-21T00:11:31;98779.00;;;16.07;68.51
68948;BME280;55996;49.546;7.400;2022-08-21T00:13:59;98790.59;;;16.21;69.31
68948;BME280;55996;49.546;7.400;2022-08-21T00:16:24;98782.19;;;16.14;68.01
68948;BME280;55996;49.546;7.400;2022-08-21T00:18:50;98781.25;;;16.15;68.60
68948;BME280;55996;49.546;7.400;2022-08-21T00:21:16;98769.25;;;16.09;68.42
68948;BME280;55996;49.546;7.400;2022-08-21T00:23:42;98782.34;;;16.11;67.73
68948;BME280;55996;49.546;7.400;2022-08-21T00:26:08;98781.97;;;16.01;68.56
68948;BME280;55996;49.546;7.400;2022-08-21T00:28:34;98789.84;;;16.03;69.17
68948;BME280;55996;49.546;7.400;2022-08-21T00:30:59;98787.16;;;15.87;70.07
68948;BME280;55996;49.546;7.400;2022-08-21T00:33:25;98785.13;;;15.74;70.17
68948;BME280;55996;49.546;7.400;2022-08-21T00:35:51;98783.59;;;15.88;70.21
68948;BME280;55996;49.546;7.400;2022-08-21T00:38:17;98778.66;;;15.97;69.82
68948;BME280;55996;49.546;7.400;2022-08-21T00:40:49;98792.38;;;16.04;69.48
68948;BME280;55996;49.546;7.400;2022-08-21T00:43:19;98782.50;;;15.92;69.12
68948;BME280;55996;49.546;7.400;2022-08-21T00:45:46;98784.91;;;15.79;70.11
68948;BME280;55996;49.546;7.400;2022-08-21T00:48:11;98782.38;;;15.60;71.38
68948;BME280;55996;49.546;7.400;2022-08-21T00:50:43;98786.59;;;15.80;70.86
68948;BME280;55996;49.546;7.400;2022-08-21T00:53:10;98782.72;;;15.87;70.12
68948;BME280;55996;49.546;7.400;2022-08-21T00:55:37;98774.41;;;15.77;70.18
68948;BME280;55996;49.546;7.400;2022-08-21T00:58:05;98782.06;;;15.66;70.65
68948;BME280;55996;49.546;7.400;2022-08-21T01:00:35;98785.56;;;15.49;72.44
68948;BME280;55996;49.546;7.400;2022-08-21T01:03:08;98771.94;;;15.41;72.22
68948;BME280;55996;49.546;7.400;2022-08-21T01:05:35;98761.41;;;15.41;72.51
68948;BME280;55996;49.546;7.400;2022-08-21T01:08:00;98777.72;;;15.47;72.48
68948;BME280;55996;49.546;7.400;2022-08-21T01:10:26;98773.88;;;15.37;73.42
68948;BME280;55996;49.546;7.400;2022-08-21T01:12:55;98779.91;;;15.39;72.91
68948;BME280;55996;49.546;7.400;2022-08-21T01:15:23;98787.50;;;15.45;72.98
68948;BME280;55996;49.546;7.400;2022-08-21T01:17:50;98780.06;;;15.36;72.32
68948;BME280;55996;49.546;7.400;2022-08-21T01:20:16;98765.50;;;15.29;72.92
68948;BME280;55996;49.546;7.400;2022-08-21T01:22:42;98778.84;;;15.26;73.09
68948;BME280;55996;49.546;7.400;2022-08-21T01:25:09;98784.25;;;15.40;72.63
68948;BME280;55996;49.546;7.400;2022-08-21T01:27:35;98771.88;;;15.25;72.93
68948;BME280;55996;49.546;7.400;2022-08-21T01:30:09;98792.94;;;15.25;73.60
68948;BME280;55996;49.546;7.400;2022-08-21T01:32:35;98790.72;;;15.17;73.50
68948;BME280;55996;49.546;7.400;2022-08-21T01:35:02;98784.66;;;14.97;74.66
68948;BME280;55996;49.546;7.400;2022-08-21T01:37:28;98793.31;;;14.99;74.86
68948;BME280;55996;49.546;7.400;2022-08-21T01:39:53;98780.53;;;15.09;73.87
68948;BME280;55996;49.546;7.400;2022-08-21T01:42:19;98791.84;;;15.11;74.25
68948;BME280;55996;49.546;7.400;2022-08-21T01:44:44;98786.75;;;15.08;73.90
68948;BME280;55996;49.546;7.400;2022-08-21T01:47:12;98782.09;;;15.13;74.64
68948;BME280;55996;49.546;7.400;2022-08-21T01:49:39;98775.22;;;15.11;74.93
68948;BME280;55996;49.546;7.400;2022-08-21T01:52:05;98786.59;;;15.11;74.52
68948;BME280;55996;49.546;7.400;2022-08-21T01:54:31;98791.25;;;15.06;74.85
68948;BME280;55996;49.546;7.400;2022-08-21T01:56:58;98791.47;;;15.01;74.31
68948;BME280;55996;49.546;7.400;2022-08-21T01:59:25;98787.38;;;15.13;74.14
68948;BME280;55996;49.546;7.400;2022-08-21T02:01:50;98782.56;;;15.22;74.22
68948;BME280;55996;49.546;7.400;2022-08-21T02:04:17;98785.13;;;15.23;73.32
68948;BME280;55996;49.546;7.400;2022-08-21T02:06:42;98786.75;;;15.26;72.96
68948;BME280;55996;49.546;7.400;2022-08-21T02:09:10;98774.03;;;14.81;74.92
68948;BME280;55996;49.546;7.400;2022-08-21T02:11:36;98782.63;;;14.85;75.58
68948;BME280;55996;49.546;7.400;2022-08-21T02:14:06;98782.50;;;14.69;75.79
68948;BME280;55996;49.546;7.400;2022-08-21T02:16:32;98756.19;;;14.69;76.33
68948;BME280;55996;49.546;7.400;2022-08-21T02:18:58;98767.22;;;14.77;75.88
68948;BME280;55996;49.546;7.400;2022-08-21T02:21:24;98771.53;;;14.78;76.38
68948;BME280;55996;49.546;7.400;2022-08-21T02:23:49;98774.44;;;14.91;75.14
68948;BME280;55996;49.546;7.400;2022-08-21T02:26:15;98771.22;;;14.84;74.56
68948;BME280;55996;49.546;7.400;2022-08-21T02:28:40;98772.63;;;14.74;74.15
68948;BME280;55996;49.546;7.400;2022-08-21T02:31:06;98769.75;;;14.60;76.29
68948;BME280;55996;49.546;7.400;2022-08-21T02:33:32;98779.44;;;14.59;77.00
68948;BME280;55996;49.546;7.400;2022-08-21T02:35:59;98767.38;;;14.55;76.98
68948;BME280;55996;49.546;7.400;2022-08-21T02:38:29;98769.75;;;14.60;77.55
68948;BME280;55996;49.546;7.400;2022-08-21T02:40:56;98773.97;;;14.64;77.51
68948;BME280;55996;49.546;7.400;2022-08-21T02:43:24;98761.94;;;14.58;76.91
68948;BME280;55996;49.546;7.400;2022-08-21T02:45:52;98764.88;;;14.52;76.70
68948;BME280;55996;49.546;7.400;2022-08-21T02:48:21;98759.28;;;14.41;78.47
68948;BME280;55996;49.546;7.400;2022-08-21T02:50:55;98778.63;;;14.20;79.31
68948;BME280;55996;49.546;7.400;2022-08-21T02:53:22;98774.41;;;14.16;79.98
68948;BME280;55996;49.546;7.400;2022-08-21T02:55:49;98773.94;;;14.08;81.50
68948;BME280;55996;49.546;7.400;2022-08-21T02:58:18;98763.13;;;14.14;81.14
68948;BME280;55996;49.546;7.400;2022-08-21T03:00:44;98776.19;;;14.35;80.19
68948;BME280;55996;49.546;7.400;2022-08-21T03:03:10;98766.25;;;14.42;79.60
68948;BME280;55996;49.546;7.400;2022-08-21T03:05:37;98764.00;;;14.34;80.14
68948;BME280;55996;49.546;7.400;2022-08-21T03:08:05;98768.13;;;14.20;80.77
68948;BME280;55996;49.546;7.400;2022-08-21T03:10:35;98762.94;;;14.19;80.34
68948;BME280;55996;49.546;7.400;2022-08-21T03:13:00;98768.25;;;14.17;79.92
68948;BME280;55996;49.546;7.400;2022-08-21T03:15:29;98763.63;;;14.23;79.71
68948;BME280;55996;49.546;7.400;2022-08-21T03:17:55;98762.97;;;14.17;80.49
68948;BME280;55996;49.546;7.400;2022-08-21T03:20:25;98754.66;;;14.08;81.31
68948;BME280;55996;49.546;7.400;2022-08-21T03:22:52;98742.31;;;13.91;83.23
68948;BME280;55996;49.546;7.400;2022-08-21T03:25:17;98746.06;;;14.04;81.62
68948;BME280;55996;49.546;7.400;2022-08-21T03:27:44;98752.47;;;14.17;80.94
68948;BME280;55996;49.546;7.400;2022-08-21T03:30:10;98751.59;;;14.36;79.98
68948;BME280;55996;49.546;7.400;2022-08-21T03:32:36;98739.53;;;14.32;78.87
68948;BME280;55996;49.546;7.400;2022-08-21T03:35:03;98746.41;;;14.34;78.33
68948;BME280;55996;49.546;7.400;2022-08-21T03:37:29;98749.84;;;14.17;79.43
68948;BME280;55996;49.546;7.400;2022-08-21T03:39:55;98749.94;;;13.97;81.78
68948;BME280;55996;49.546;7.400;2022-08-21T03:42:21;98740.47;;;13.93;82.12
68948;BME280;55996;49.546;7.400;2022-08-21T03:44:46;98757.31;;;13.88;83.00
68948;BME280;55996;49.546;7.400;2022-08-21T03:47:12;98757.94;;;13.94;82.54
68948;BME280;55996;49.546;7.400;2022-08-21T03:49:39;98750.22;;;13.91;81.82
68948;BME280;55996;49.546;7.400;2022-08-21T03:52:04;98746.34;;;13.98;81.35
68948;BME280;55996;49.546;7.400;2022-08-21T03:54:30;98748.50;;;14.09;81.16
68948;BME280;55996;49.546;7.400;2022-08-21T03:56:56;98746.16;;;14.02;78.42
68948;BME280;55996;49.546;7.400;2022-08-21T03:59:22;98752.59;;;13.76;80.66
68948;BME280;55996;49.546;7.400;2022-08-21T04:01:56;98750.13;;;13.73;82.19
68948;BME280;55996;49.546;7.400;2022-08-21T04:04:23;98756.84;;;13.60;82.46
68948;BME280;55996;49.546;7.400;2022-08-21T04:06:48;98765.22;;;13.68;83.53
68948;BME280;55996;49.546;7.400;2022-08-21T04:09:16;98756.94;;;13.77;82.83
68948;BME280;55996;49.546;7.400;2022-08-21T04:11:41;98764.09;;;13.93;82.23
68948;BME280;55996;49.546;7.400;2022-08-21T04:14:06;98766.41;;;14.00;81.16
68948;BME280;55996;49.546;7.400;2022-08-21T04:16:32;98763.84;;;13.99;80.68
68948;BME280;55996;49.546;7.400;2022-08-21T04:18:57;98772.34;;;14.04;79.89
68948;BME280;55996;49.546;7.400;2022-08-21T04:21:23;98761.00;;;14.03;79.14
68948;BME280;55996;49.546;7.400;2022-08-21T04:23:49;98778.56;;;14.03;80.24
68948;BME280;55996;49.546;7.400;2022-08-21T04:26:14;98776.34;;;13.94;80.27
68948;BME280;55996;49.546;7.400;2022-08-21T04:28:40;98785.75;;;13.79;81.74
68948;BME280;55996;49.546;7.400;2022-08-21T04:31:06;98784.75;;;13.62;83.05
68948;BME280;55996;49.546;7.400;2022-08-21T04:33:31;98781.50;;;13.55;83.66
68948;BME280;55996;49.546;7.400;2022-08-21T04:35:57;98777.25;;;13.53;84.93
68948;BME280;55996;49.546;7.400;2022-08-21T04:38:22;98791.00;;;13.60;85.10
68948;BME280;55996;49.546;7.400;2022-08-21T04:40:49;98787.44;;;13.61;83.46
68948;BME280;55996;49.546;7.400;2022-08-21T04:43:15;98789.59;;;13.71;82.79
68948;BME280;55996;49.546;7.400;2022-08-21T04:45:46;98786.22;;;13.68;82.86
68948;BME280;55996;49.546;7.400;2022-08-21T04:48:14;98792.16;;;13.73;82.29
68948;BME280;55996;49.546;7.400;2022-08-21T04:53:47;98791.09;;;13.56;84.10
68948;BME280;55996;49.546;7.400;2022-08-21T04:56:26;98791.38;;;13.50;84.43
68948;BME280;55996;49.546;7.400;2022-08-21T04:58:55;98793.19;;;13.69;84.54
68948;BME280;55996;49.546;7.400;2022-08-21T05:01:23;98787.72;;;13.54;85.64
68948;BME280;55996;49.546;7.400;2022-08-21T05:03:52;98791.63;;;13.65;85.27
68948;BME280;55996;49.546;7.400;2022-08-21T05:06:20;98783.59;;;13.68;84.91
68948;BME280;55996;49.546;7.400;2022-08-21T05:08:49;98780.22;;;13.66;84.42
68948;BME280;55996;49.546;7.400;2022-08-21T05:11:17;98794.25;;;13.85;84.92
68948;BME280;55996;49.546;7.400;2022-08-21T05:13:43;98793.25;;;13.88;84.66
68948;BME280;55996;49.546;7.400;2022-08-21T05:16:08;98790.13;;;13.99;84.62
68948;BME280;55996;49.546;7.400;2022-08-21T05:18:34;98788.63;;;13.93;84.07
68948;BME280;55996;49.546;7.400;2022-08-21T05:21:00;98793.53;;;14.01;83.92
68948;BME280;55996;49.546;7.400;2022-08-21T05:23:25;98792.41;;;14.07;83.62
68948;BME280;55996;49.546;7.400;2022-08-21T05:25:54;98785.50;;;14.04;83.73
68948;BME280;55996;49.546;7.400;2022-08-21T05:28:21;98792.69;;;14.00;84.48
68948;BME280;55996;49.546;7.400;2022-08-21T05:30:46;98786.28;;;14.06;84.20
68948;BME280;55996;49.546;7.400;2022-08-21T05:33:12;98791.41;;;14.09;84.67
68948;BME280;55996;49.546;7.400;2022-08-21T05:35:38;98792.25;;;14.10;84.56
68948;BME280;55996;49.546;7.400;2022-08-21T05:38:05;98791.91;;;14.17;84.71
68948;BME280;55996;49.546;7.400;2022-08-21T05:40:31;98791.50;;;14.27;84.33
68948;BME280;55996;49.546;7.400;2022-08-21T05:42:56;98804.63;;;14.27;84.54
68948;BME280;55996;49.546;7.400;2022-08-21T05:45:23;98799.00;;;14.34;84.29
68948;BME280;55996;49.546;7.400;2022-08-21T05:47:49;98799.34;;;14.46;83.84
68948;BME280;55996;49.546;7.400;2022-08-21T05:50:15;98795.59;;;14.51;84.03
68948;BME280;55996;49.546;7.400;2022-08-21T05:52:40;98792.34;;;14.65;83.73
68948;BME280;55996;49.546;7.400;2022-08-21T05:55:06;98789.66;;;14.84;83.11
68948;BME280;55996;49.546;7.400;2022-08-21T05:57:32;98800.69;;;15.10;82.83
68948;BME280;55996;49.546;7.400;2022-08-21T05:59:57;98800.22;;;15.37;81.01
68948;BME280;55996;49.546;7.400;2022-08-21T06:02:22;98800.78;;;15.77;82.78
68948;BME280;55996;49.546;7.400;2022-08-21T06:04:48;98801.50;;;16.30;83.30
68948;BME280;55996;49.546;7.400;2022-08-21T06:07:14;98797.16;;;16.77;80.24
68948;BME280;55996;49.546;7.400;2022-08-21T06:09:40;98795.53;;;17.21;75.92
68948;BME280;55996;49.546;7.400;2022-08-21T06:12:11;98783.44;;;17.62;71.18
68948;BME280;55996;49.546;7.400;2022-08-21T06:14:39;98781.66;;;18.20;67.54
68948;BME280;55996;49.546;7.400;2022-08-21T06:17:10;98779.19;;;18.74;64.39
68948;BME280;55996;49.546;7.400;2022-08-21T06:19:37;98777.97;;;19.19;61.71
68948;BME280;55996;49.546;7.400;2022-08-21T06:22:04;98767.91;;;19.63;59.20
68948;BME280;55996;49.546;7.400;2022-08-21T06:24:30;98762.94;;;19.97;57.14
68948;BME280;55996;49.546;7.400;2022-08-21T06:26:55;98753.97;;;20.24;56.67
68948;BME280;55996;49.546;7.400;2022-08-21T06:29:21;98751.28;;;20.37;56.62
68948;BME280;55996;49.546;7.400;2022-08-21T06:31:48;98747.91;;;20.59;55.84
68948;BME280;55996;49.546;7.400;2022-08-21T06:34:14;98744.03;;;20.76;54.08
68948;BME280;55996;49.546;7.400;2022-08-21T06:36:40;98750.50;;;20.96;53.38
68948;BME280;55996;49.546;7.400;2022-08-21T06:39:06;98746.91;;;21.09;52.38
68948;BME280;55996;49.546;7.400;2022-08-21T06:41:32;98749.59;;;21.20;52.27
68948;BME280;55996;49.546;7.400;2022-08-21T06:43:58;98729.06;;;21.22;51.88
68948;BME280;55996;49.546;7.400;2022-08-21T06:46:25;98747.09;;;21.30;51.88
68948;BME280;55996;49.546;7.400;2022-08-21T06:48:51;98743.19;;;21.23;51.94
68948;BME280;55996;49.546;7.400;2022-08-21T06:51:17;98751.16;;;21.11;51.81
68948;BME280;55996;49.546;7.400;2022-08-21T06:53:42;98746.19;;;21.07;53.03
68948;BME280;55996;49.546;7.400;2022-08-21T06:56:08;98749.88;;;20.93;53.75
68948;BME280;55996;49.546;7.400;2022-08-21T06:58:34;98755.16;;;20.82;55.26
68948;BME280;55996;49.546;7.400;2022-08-21T07:00:59;98756.44;;;20.76;55.70
68948;BME280;55996;49.546;7.400;2022-08-21T07:03:28;98744.78;;;20.66;56.25
68948;BME280;55996;49.546;7.400;2022-08-21T07:05:54;98752.75;;;20.66;56.49
68948;BME280;55996;49.546;7.400;2022-08-21T07:08:21;98749.78;;;20.70;57.24
68948;BME280;55996;49.546;7.400;2022-08-21T07:10:47;98749.44;;;20.75;57.88
68948;BME280;55996;49.546;7.400;2022-08-21T07:13:13;98747.06;;;20.83;57.85
68948;BME280;55996;49.546;7.400;2022-08-21T07:15:40;98751.69;;;20.92;57.81
68948;BME280;55996;49.546;7.400;2022-08-21T07:18:06;98743.56;;;20.83;56.81
68948;BME280;55996;49.546;7.400;2022-08-21T07:20:32;98745.38;;;20.82;58.00
68948;BME280;55996;49.546;7.400;2022-08-21T07:23:02;98748.88;;;20.83;58.25
68948;BME280;55996;49.546;7.400;2022-08-21T07:25:28;98734.72;;;20.82;57.74
68948;BME280;55996;49.546;7.400;2022-08-21T07:27:55;98728.75;;;20.91;58.35
68948;BME280;55996;49.546;7.400;2022-08-21T07:30:21;98752.25;;;21.09;57.80
68948;BME280;55996;49.546;7.400;2022-08-21T07:32:47;98742.72;;;21.18;57.04
68948;BME280;55996;49.546;7.400;2022-08-21T07:35:15;98728.69;;;21.16;57.02
68948;BME280;55996;49.546;7.400;2022-08-21T07:37:40;98734.63;;;21.31;57.29
68948;BME280;55996;49.546;7.400;2022-08-21T07:40:06;98728.13;;;21.35;57.48
68948;BME280;55996;49.546;7.400;2022-08-21T07:42:32;98736.97;;;21.47;57.01
68948;BME280;55996;49.546;7.400;2022-08-21T07:44:57;98735.81;;;21.62;57.14
68948;BME280;55996;49.546;7.400;2022-08-21T07:47:23;98727.97;;;21.72;56.88
68948;BME280;55996;49.546;7.400;2022-08-21T07:49:48;98721.41;;;21.76;55.59
68948;BME280;55996;49.546;7.400;2022-08-21T07:52:14;98722.25;;;21.88;55.21
68948;BME280;55996;49.546;7.400;2022-08-21T07:54:39;98721.06;;;21.92;52.53
68948;BME280;55996;49.546;7.400;2022-08-21T07:57:05;98715.97;;;21.89;51.16
68948;BME280;55996;49.546;7.400;2022-08-21T07:59:30;98714.63;;;21.95;52.01
68948;BME280;55996;49.546;7.400;2022-08-21T08:01:56;98713.88;;;22.04;50.96
68948;BME280;55996;49.546;7.400;2022-08-21T08:04:22;98719.56;;;22.11;49.51
68948;BME280;55996;49.546;7.400;2022-08-21T08:06:47;98699.88;;;22.02;49.06
68948;BME280;55996;49.546;7.400;2022-08-21T08:09:13;98706.38;;;22.20;50.11
68948;BME280;55996;49.546;7.400;2022-08-21T08:11:41;98702.34;;;22.26;49.12
68948;BME280;55996;49.546;7.400;2022-08-21T08:14:08;98708.53;;;22.27;48.82
68948;BME280;55996;49.546;7.400;2022-08-21T08:16:33;98694.72;;;22.33;50.57
68948;BME280;55996;49.546;7.400;2022-08-21T08:18:59;98697.75;;;22.39;49.71
68948;BME280;55996;49.546;7.400;2022-08-21T08:21:25;98699.41;;;22.52;49.61
68948;BME280;55996;49.546;7.400;2022-08-21T08:23:51;98690.38;;;22.64;50.61
68948;BME280;55996;49.546;7.400;2022-08-21T08:26:17;98690.34;;;22.76;50.23
68948;BME280;55996;49.546;7.400;2022-08-21T08:28:43;98699.00;;;22.89;49.64
68948;BME280;55996;49.546;7.400;2022-08-21T08:31:09;98698.69;;;23.03;50.40
68948;BME280;55996;49.546;7.400;2022-08-21T08:33:34;98683.22;;;23.18;49.09
68948;BME280;55996;49.546;7.400;2022-08-21T08:36:00;98686.25;;;23.35;48.83
68948;BME280;55996;49.546;7.400;2022-08-21T08:38:25;98682.78;;;23.44;48.12
68948;BME280;55996;49.546;7.400;2022-08-21T08:43:27;98687.56;;;23.72;46.88
68948;BME280;55996;49.546;7.400;2022-08-21T08:45:56;98691.78;;;23.84;46.84
68948;BME280;55996;49.546;7.400;2022-08-21T08:48:49;98689.69;;;23.88;45.68
68948;BME280;55996;49.546;7.400;2022-08-21T08:54:02;98686.44;;;24.05;45.35
68948;BME280;55996;49.546;7.400;2022-08-21T08:56:33;98697.94;;;24.06;46.03
68948;BME280;55996;49.546;7.400;2022-08-21T08:59:05;98696.56;;;24.11;46.70
68948;BME280;55996;49.546;7.400;2022-08-21T09:01:34;98690.69;;;24.17;46.50
68948;BME280;55996;49.546;7.400;2022-08-21T09:03:59;98679.13;;;24.17;44.32
68948;BME280;55996;49.546;7.400;2022-08-21T09:09:38;98683.00;;;24.63;42.40
68948;BME280;55996;49.546;7.400;2022-08-21T09:12:12;98684.53;;;24.95;42.96
68948;BME280;55996;49.546;7.400;2022-08-21T09:17:36;98675.72;;;26.08;40.72
68948;BME280;55996;49.546;7.400;2022-08-21T09:28:21;98652.56;;;29.26;34.89
68948;BME280;55996;49.546;7.400;2022-08-21T09:30:47;98648.06;;;29.67;33.97
68948;BME280;55996;49.546;7.400;2022-08-21T09:33:13;98634.78;;;30.05;32.57
68948;BME280;55996;49.546;7.400;2022-08-21T09:35:52;98640.50;;;30.33;32.68
68948;BME280;55996;49.546;7.400;2022-08-21T09:38:36;98643.16;;;30.10;32.12
68948;BME280;55996;49.546;7.400;2022-08-21T09:41:03;98637.22;;;30.23;32.14
68948;BME280;55996;49.546;7.400;2022-08-21T09:43:30;98632.88;;;30.60;33.51
68948;BME280;55996;49.546;7.400;2022-08-21T09:46:04;98629.94;;;31.08;32.05
68948;BME280;55996;49.546;7.400;2022-08-21T09:48:45;98628.38;;;31.14;31.39
68948;BME280;55996;49.546;7.400;2022-08-21T09:51:19;98621.69;;;31.39;31.54
68948;BME280;55996;49.546;7.400;2022-08-21T09:53:53;98625.50;;;31.45;31.23
68948;BME280;55996;49.546;7.400;2022-08-21T09:56:33;98624.69;;;31.96;31.33
68948;BME280;55996;49.546;7.400;2022-08-21T10:01:52;98611.84;;;32.63;29.38
68948;BME280;55996;49.546;7.400;2022-08-21T10:04:29;98602.59;;;33.01;29.02
68948;BME280;55996;49.546;7.400;2022-08-21T10:06:54;98604.19;;;32.89;28.75
68948;BME280;55996;49.546;7.400;2022-08-21T10:09:30;98603.56;;;32.65;29.12
68948;BME280;55996;49.546;7.400;2022-08-21T10:12:23;98600.56;;;32.81;28.79
68948;BME280;55996;49.546;7.400;2022-08-21T10:17:55;98603.63;;;32.28;30.01
68948;BME280;55996;49.546;7.400;2022-08-21T10:23:07;98604.44;;;31.11;30.62
68948;BME280;55996;49.546;7.400;2022-08-21T10:25:41;98605.34;;;29.95;32.13
68948;BME280;55996;49.546;7.400;2022-08-21T10:36:52;98601.69;;;27.83;36.26
68948;BME280;55996;49.546;7.400;2022-08-21T10:39:35;98607.63;;;27.52;37.06
68948;BME280;55996;49.546;7.400;2022-08-21T10:47:48;98604.38;;;27.05;38.39
68948;BME280;55996;49.546;7.400;2022-08-21T10:53:16;98597.75;;;26.73;37.80
68948;BME280;55996;49.546;7.400;2022-08-21T10:55:51;98594.53;;;26.52;37.71
68948;BME280;55996;49.546;7.400;2022-08-21T10:58:37;98594.97;;;26.39;37.86
68948;BME280;55996;49.546;7.400;2022-08-21T11:01:25;98592.34;;;26.29;38.03
68948;BME280;55996;49.546;7.400;2022-08-21T11:06:51;98582.09;;;26.24;39.24
68948;BME280;55996;49.546;7.400;2022-08-21T11:09:20;98580.47;;;26.32;39.34
68948;BME280;55996;49.546;7.400;2022-08-21T11:12:39;98575.19;;;26.40;36.85
68948;BME280;55996;49.546;7.400;2022-08-21T11:17:12;98577.44;;;26.26;36.41
68948;BME280;55996;49.546;7.400;2022-08-21T11:19:45;98585.19;;;26.30;36.86
68948;BME280;55996;49.546;7.400;2022-08-21T11:22:17;98570.28;;;26.35;38.24
68948;BME280;55996;49.546;7.400;2022-08-21T11:24:52;98565.09;;;26.34;34.99
68948;BME280;55996;49.546;7.400;2022-08-21T11:30:00;98548.31;;;25.96;36.13
68948;BME280;55996;49.546;7.400;2022-08-21T11:46:01;98563.78;;;26.38;35.72
68948;BME280;55996;49.546;7.400;2022-08-21T11:51:17;98544.38;;;26.62;36.10
68948;BME280;55996;49.546;7.400;2022-08-21T11:56:38;98537.03;;;26.90;37.58
68948;BME280;55996;49.546;7.400;2022-08-21T11:59:16;98556.19;;;26.96;35.99
68948;BME280;55996;49.546;7.400;2022-08-21T12:01:46;98544.91;;;26.92;36.20
68948;BME280;55996;49.546;7.400;2022-08-21T12:04:27;98529.66;;;26.93;36.63
68948;BME280;55996;49.546;7.400;2022-08-21T12:06:54;98541.44;;;27.00;34.77
68948;BME280;55996;49.546;7.400;2022-08-21T12:12:27;98549.31;;;27.01;34.93
68948;BME280;55996;49.546;7.400;2022-08-21T12:17:37;98535.34;;;26.89;32.65
68948;BME280;55996;49.546;7.400;2022-08-21T12:23:02;98533.72;;;26.97;35.26
68948;BME280;55996;49.546;7.400;2022-08-21T12:25:36;98526.19;;;27.00;32.00
68948;BME280;55996;49.546;7.400;2022-08-21T12:28:07;98535.44;;;27.06;34.70
68948;BME280;55996;49.546;7.400;2022-08-21T12:30:37;98531.63;;;27.17;35.40
68948;BME280;55996;49.546;7.400;2022-08-21T12:33:05;98520.88;;;27.17;34.59
68948;BME280;55996;49.546;7.400;2022-08-21T12:38:08;98529.59;;;27.19;38.13
68948;BME280;55996;49.546;7.400;2022-08-21T12:40:41;98529.28;;;27.22;35.59
68948;BME280;55996;49.546;7.400;2022-08-21T12:43:20;98520.56;;;27.20;36.47
68948;BME280;55996;49.546;7.400;2022-08-21T12:45:49;98525.09;;;27.19;34.28
68948;BME280;55996;49.546;7.400;2022-08-21T12:48:35;98523.28;;;27.28;36.92
68948;BME280;55996;49.546;7.400;2022-08-21T12:56:18;98510.53;;;27.30;34.96
68948;BME280;55996;49.546;7.400;2022-08-21T12:58:48;98493.19;;;27.16;33.38
68948;BME280;55996;49.546;7.400;2022-08-21T13:01:35;98511.03;;;27.26;34.79
68948;BME280;55996;49.546;7.400;2022-08-21T13:04:06;98507.69;;;27.32;36.18
68948;BME280;55996;49.546;7.400;2022-08-21T13:06:39;98508.38;;;27.34;36.70
68948;BME280;55996;49.546;7.400;2022-08-21T13:09:11;98502.44;;;27.22;40.63
68948;BME280;55996;49.546;7.400;2022-08-21T13:11:39;98511.19;;;27.24;39.64
68948;BME280;55996;49.546;7.400;2022-08-21T13:14:06;98515.56;;;27.33;40.06
68948;BME280;55996;49.546;7.400;2022-08-21T13:16:36;98503.31;;;27.31;38.06
68948;BME280;55996;49.546;7.400;2022-08-21T13:19:06;98510.03;;;27.35;38.65
68948;BME280;55996;49.546;7.400;2022-08-21T13:21:38;98494.91;;;27.26;34.68
68948;BME280;55996;49.546;7.400;2022-08-21T13:24:17;98499.59;;;27.23;38.06
68948;BME280;55996;49.546;7.400;2022-08-21T13:26:44;98506.13;;;27.21;38.55
68948;BME280;55996;49.546;7.400;2022-08-21T13:29:12;98479.75;;;27.08;36.61
68948;BME280;55996;49.546;7.400;2022-08-21T13:31:39;98485.25;;;26.98;35.42
68948;BME280;55996;49.546;7.400;2022-08-21T13:34:09;98490.22;;;26.85;34.07
68948;BME280;55996;49.546;7.400;2022-08-21T13:36:39;98472.31;;;26.67;33.28
68948;BME280;55996;49.546;7.400;2022-08-21T13:39:11;98477.06;;;26.73;33.33
68948;BME280;55996;49.546;7.400;2022-08-21T13:41:41;98464.44;;;26.66;33.91
68948;BME280;55996;49.546;7.400;2022-08-21T13:44:31;98484.75;;;26.68;39.93
68948;BME280;55996;49.546;7.400;2022-08-21T13:46:59;98477.69;;;26.67;38.66
68948;BME280;55996;49.546;7.400;2022-08-21T13:49:32;98475.59;;;26.79;38.02
68948;BME280;55996;49.546;7.400;2022-08-21T13:51:59;98474.28;;;26.83;37.53
68948;BME280;55996;49.546;7.400;2022-08-21T13:54:39;98481.47;;;26.83;39.14
68948;BME280;55996;49.546;7.400;2022-08-21T13:57:24;98473.25;;;26.76;33.97
68948;BME280;55996;49.546;7.400;2022-08-21T13:59:49;98470.34;;;26.69;34.88
68948;BME280;55996;49.546;7.400;2022-08-21T14:02:19;98475.09;;;26.76;37.85
68948;BME280;55996;49.546;7.400;2022-08-21T14:04:54;98464.97;;;26.69;33.39
68948;BME280;55996;49.546;7.400;2022-08-21T14:07:45;98467.28;;;26.64;34.76
68948;BME280;55996;49.546;7.400;2022-08-21T14:10:20;98462.06;;;26.63;37.55
68948;BME280;55996;49.546;7.400;2022-08-21T14:12:50;98466.44;;;26.64;43.03
68948;BME280;55996;49.546;7.400;2022-08-21T14:15:22;98463.59;;;26.65;45.98
68948;BME280;55996;49.546;7.400;2022-08-21T14:17:50;98463.69;;;26.55;37.39
68948;BME280;55996;49.546;7.400;2022-08-21T14:20:31;98461.88;;;26.56;41.28
68948;BME280;55996;49.546;7.400;2022-08-21T14:22:57;98448.78;;;26.53;42.85
68948;BME280;55996;49.546;7.400;2022-08-21T14:28:03;98451.88;;;26.66;38.75
68948;BME280;55996;49.546;7.400;2022-08-21T14:30:37;98449.34;;;26.65;36.56
68948;BME280;55996;49.546;7.400;2022-08-21T14:33:07;98446.84;;;26.63;40.85
68948;BME280;55996;49.546;7.400;2022-08-21T14:35:34;98445.94;;;26.54;39.59
68948;BME280;55996;49.546;7.400;2022-08-21T14:37:59;98435.72;;;26.50;37.44
68948;BME280;55996;49.546;7.400;2022-08-21T14:40:25;98444.75;;;26.49;39.88
68948;BME280;55996;49.546;7.400;2022-08-21T14:42:51;98444.69;;;26.40;39.02